Terminal Aerodrome Forecast
Issued by NWS

Home | Current Version | Previous Version | Text Only | Print | Product List | Glossary On
Versions: 1 2 3 4 5 6 7 8 9 10 11 12 13 14 15 16 17 18 19 20 21
459
FTUS43 KDLH 040800 AAB
TAFBRD
TAF AMD
KBRD 040800Z 0408/0506 18006KT P6SM OVC017
     FM041000 27004KT 3SM -SN BKN010
     FM041400 29006KT P6SM SCT010=

USA.gov is the U.S. government's official web portal to all federal, state and local government web resources and services.